DIVISION OF AGRICULTURAL PHYSICS
INDIAN AGRICULTURAL RESEARCH INSTITUTE
NEW DELHI, INDIA-110012
Phone No. 011-25843014

(IARI: Latitude: 280 38'23"N, Longitude:770 09'27"E., Altitude: 228.61m above msl.)
Duration of data : Last 60 days
Date Max.
Temp.
(oC)
Min.
Temp.
(oC)
Rainfall
(mm)
Wind
Speed
(Kmph)
Wind
Direction-I
Wind
Direction-II
Weather
condition-I
(Code 0-9)
Weather
condition-II
(Code 0-9)
RH-I
(%)
RH-II
(%)
BSS
(hrs)
Evaporation
(mm)
2017-11-23 25.0 6.0 0.00 3.9 C W 4 0 86.0 35.0 7.5 2.2
2017-11-24 24.8 5.0 0.00 3.1 C W 4 0 83.0 46.0 7.7 2.7
2017-11-25 25.5 5.8 0.00 3.1 C W 4 0 86.0 37.0 7.0 2.5
2017-11-26 26.0 5.6 0.00 2.4 C W 4 1 86.0 38.0 7.0 3.0
2017-11-27 26.0 6.5 0.00 1.5 C NW 4 0 81.0 45.0 5.3 2.0
2017-11-28 25.0 5.4 0.00 3.3 C W 4 0 91.0 38.0 6.0 2.5
2017-11-29 27.0 6.6 0.00 2.3 C E 4 0 86.0 38.0 6.8 3.0
2017-11-30 27.0 7.2 0.00 0.9 C NW 4 0 92.0 40.0 4.6 3.0
2017-12-01 26.2 5.6 0.00 1.7 C NW 4 0 91.0 42.0 4.9 2.4
2017-12-02 25.0 5.6 0.00 1.9 C NW 4 0 94.0 37.0 5.8 2.5
2017-12-03 25.0 5.5 0.00 1.0 C N 4 0 94.0 52.0 5.2 2.5
2017-12-04 23.8 6.0 0.00 0.2 C W 4 1 91.0 47.0 0.0 2.0
2017-12-05 23.0 11.8 0.00 0.9 C NW 4 1 93.0 56.0 0.5 1.9
2017-12-06 23.2 11.8 0.00 2.8 C NW 4 1 82.0 37.0 0.0 1.7
2017-12-07 24.2 11.9 0.00 3.9 C NW 1 0 62.0 38.0 4.6 2.4
2017-12-08 24.2 9.9 0.00 5.7 W NW 1 0 63.0 43.0 6.0 2.4
2017-12-09 24.0 5.5 0.00 4.1 C W 4 0 94.0 44.0 7.1 2.3
2017-12-10 25.0 5.2 0.00 1.5 C C 4 0 97.0 43.0 6.7 2.7
2017-12-11 25.7 5.4 0.00 1.2 C SW 4 0 97.0 47.0 5.7 2.8
2017-12-12 23.6 5.4 7.40 2.9 C NW 4 4 98.0 86.0 0.2 2.0
2017-12-13 20.4 10.4 0.00 4.4 NW W 4 4 98.0 77.0 0.0 1.9
2017-12-14 19.4 9.8 0.00 4.6 NW WNW 4 4 97.0 69.0 0.7 1.7
2017-12-15 18.0 6.6 0.00 5.7 NW NW 4 2 97.0 67.0 4.0 1.6
2017-12-16 18.4 7.2 0.00 6.3 NW N 4 4 92.0 54.0 4.9 1.5
2017-12-17 19.0 6.2 0.00 7.0 W W 0 0 78.0 46.0 6.8 1.8
2017-12-18 22.0 8.2 0.00 7.7 W W 0 0 82.0 46.0 8.4 2.2
2017-12-19 24.5 7.5 0.00 4.7 W W 4 0 75.0 55.0 8.0 3.6
2017-12-20 22.5 7.0 0.00 2.8 C W 4 4 92.0 64.0 3.3 3.0
2017-12-21 21.0 9.4 0.00 1.7 C W 4 4 95.0 53.0 0.0 2.0
2017-12-22 24.5 8.8 0.00 2.5 C W 4 0 92.0 45.0 1.2 1.8
2017-12-23 24.4 9.0 0.00 5.6 W W 0 0 83.0 48.0 6.9 2.7
2017-12-24 24.8 3.5 0.00 3.6 C W 4 0 91.0 42.0 8.0 2.5
2017-12-25 23.8 4.2 0.00 1.1 C W 4 1 91.0 49.0 6.4 2.6
2017-12-26 23.0 4.4 0.00 2.4 C NW 4 4 91.0 57.0 4.6 2.0
2017-12-27 22.2 4.5 0.00 2.3 C W 4 0 91.0 48.0 4.8 1.9
2017-12-28 23.8 4.6 0.00 1.7 C W 4 0 94.0 42.0 5.5 2.8
2017-12-29 24.0 3.2 0.00 1.8 C W 4 0 91.0 45.0 6.0 2.5
2017-12-30 23.0 4.5 0.00 1.4 C W 4 0 91.0 53.0 4.5 3.0
2017-12-31 22.0 3.4 0.00 1.3 C W 4 0 94.0 50.0 3.0 2.2
2018-01-01 21.8 2.8 0.00 1.5 C NW 4 4 94.0 68.0 4.2 1.7
2018-01-02 19.6 7.5 0.00 2.1 C W 4 4 97.0 69.0 0.0 1.4
2018-01-03 16.5 5.8 0.00 2.4 W NW 4 4 97.0 70.0 0.0 1.4
2018-01-04 15.4 3.0 0.00 2.4 W NW 4 4 94.0 67.0 1.0 1.4
2018-01-05 19.0 5.9 0.00 2.7 C NE 4 4 94.0 55.0 3.3 1.5
2018-01-06 17.0 1.2 0.00 1.6 C W 4 4 89.0 58.0 0.0 1.3
2018-01-07 18.6 2.0 0.00 2.3 NW NW 4 0 97.0 55.0 3.4 1.5
2018-01-08 19.5 1.9 0.00 3.9 C NW 4 0 97.0 51.0 5.9 2.1
2018-01-09 20.2 1.1 0.00 2.7 C NW 4 0 99.0 57.0 6.8 2.3
2018-01-10 20.4 3.6 0.00 2.9 C NNW 4 0 97.0 36.0 6.5 1.9
2018-01-11 21.9 6.0 0.00 5.2 SW NNW 4 0 92.0 45.0 6.8 2.3
2018-01-12 22.0 4.2 0.00 4.5 C NNW 4 0 76.0 40.0 6.7 2.7
2018-01-13 22.5 2.5 0.00 4.5 C NNW 4 0 97.0 37.0 3.9 2.3
2018-01-14 23.6 1.7 0.00 4.6 C N 4 0 81.0 42.0 6.4 2.5
2018-01-15 22.9 1.8 0.00 2.6 C NW 4 0 97.0 48.0 6.0 2.9
2018-01-16 21.8 1.8 0.00 6.6 W W 4 0 78.0 40.0 5.8 2.2
2018-01-17 23.5 4.9 0.00 3.0 C SE 4 0 94.0 30.0 8.1 2.8
2018-01-18 21.8 4.4 0.00 3.1 C C 4 0 97.0 41.0 5.0 3.0
2018-01-19 25.0 3.2 0.00 1.4 C W 4 0 97.0 39.0 7.1 2.7
2018-01-20 23.0 5.9 0.00 2.9 C NW 4 0 91.0 36.0 6.0 3.0
2018-01-21 21.5 2.0 0.00 3.8 C NNW 4 0 93.0 29.0 7.2 3.1
2018-01-22 23.5 2.7 0.00 1.3 C 4 0 94.0 0.0 8.0 3.6

Abbrevations used:
I - Observations taken at 7.21 hrs. and II - Observations taken at 14:21 hrs.
Codes:
0 - Fair (clear and slightly clouded), 1 - Variable Sky, 2 - Mainly Overcast, 3 - Sand Storm or Dust Storm,4 - Fog or Thick Dust Haze, 5 - Drizzle, 6 - Rain,7 - Snow or Sleet, 8 - Shower (s), 9 - Thunder Storm with or without Precipitation